Terminal Aerodrome Forecast
Issued by NWS

Current Version | Previous Version | Graphics & Text | Print | Product List | Glossary On
Versions: 1 2 3 4 5 6 7 8 9 10 11 12 13 14 15 16 17 18 19 20
000
FTUS41 KPBZ 281700
TAFHLG
TAF
KHLG 281736Z 2818/2918 VRB05KT P6SM BKN250
     FM282300 VRB05KT P6SM SKC
     FM291000 00000KT 1 1/2SM BR SCT250
     FM291100 00000KT 1/2SM FG BKN001
     FM291300 00000KT 6SM BR SCT250
     FM291400 VRB05KT P6SM SCT250=

USA.gov is the U.S. government's official web portal to all federal, state and local government web resources and services.